Terminal Aerodrome Forecast
Issued by NWS Charleston, WV

Current Version | Previous Version | Graphics & Text | Print | Product List | Glossary On
Versions: 1 2 3 4 5 6 7 8 9 10 11 12 13 14 15 16 17 18 19 20 21 22 23
980
FTUS41 KRLX 221120
TAFPKB
TAF
KPKB 221120Z 2212/2312 30010KT P6SM BKN012 OVC021
     FM221400 29005KT P6SM BKN035
     FM221700 29006KT P6SM SCT140=

USA.gov is the U.S. government's official web portal to all federal, state and local government web resources and services.